sensor_id;sensor_type;location;lat;lon;timestamp;P1;durP1;ratioP1;P2;durP2;ratioP2
72156;SDS011;60035;52.122;5.406;2023-09-18T00:01:59;18.60;;;10.50;;
72156;SDS011;60035;52.122;5.406;2023-09-18T00:04:26;19.25;;;11.65;;
72156;SDS011;60035;52.122;5.406;2023-09-18T00:06:52;17.60;;;10.98;;
72156;SDS011;60035;52.122;5.406;2023-09-18T00:09:19;16.77;;;9.90;;
72156;SDS011;60035;52.122;5.406;2023-09-18T00:11:46;18.35;;;11.10;;
72156;SDS011;60035;52.122;5.406;2023-09-18T00:14:12;17.40;;;9.18;;
72156;SDS011;60035;52.122;5.406;2023-09-18T00:16:39;18.90;;;10.95;;
72156;SDS011;60035;52.122;5.406;2023-09-18T00:19:23;19.02;;;11.48;;
72156;SDS011;60035;52.122;5.406;2023-09-18T00:21:55;18.38;;;11.55;;
72156;SDS011;60035;52.122;5.406;2023-09-18T00:24:22;18.65;;;11.25;;
72156;SDS011;60035;52.122;5.406;2023-09-18T00:26:49;18.30;;;10.52;;
72156;SDS011;60035;52.122;5.406;2023-09-18T00:29:15;19.90;;;11.40;;
72156;SDS011;60035;52.122;5.406;2023-09-18T00:31:42;20.48;;;11.13;;
72156;SDS011;60035;52.122;5.406;2023-09-18T00:34:08;17.70;;;10.10;;
72156;SDS011;60035;52.122;5.406;2023-09-18T00:36:35;18.00;;;10.35;;
72156;SDS011;60035;52.122;5.406;2023-09-18T00:39:02;19.95;;;10.52;;
72156;SDS011;60035;52.122;5.406;2023-09-18T00:41:29;17.98;;;10.07;;
72156;SDS011;60035;52.122;5.406;2023-09-18T00:43:56;16.45;;;9.43;;
72156;SDS011;60035;52.122;5.406;2023-09-18T00:46:23;19.83;;;10.02;;
72156;SDS011;60035;52.122;5.406;2023-09-18T00:48:49;16.27;;;8.65;;
72156;SDS011;60035;52.122;5.406;2023-09-18T00:51:17;19.05;;;10.35;;
72156;SDS011;60035;52.122;5.406;2023-09-18T00:53:44;16.73;;;9.00;;
72156;SDS011;60035;52.122;5.406;2023-09-18T00:56:14;18.27;;;10.15;;
72156;SDS011;60035;52.122;5.406;2023-09-18T00:58:41;17.15;;;10.00;;
72156;SDS011;60035;52.122;5.406;2023-09-18T01:01:09;16.73;;;9.68;;
72156;SDS011;60035;52.122;5.406;2023-09-18T01:03:37;19.90;;;10.13;;
72156;SDS011;60035;52.122;5.406;2023-09-18T01:06:04;17.85;;;9.60;;
72156;SDS011;60035;52.122;5.406;2023-09-18T01:08:30;17.30;;;10.32;;
72156;SDS011;60035;52.122;5.406;2023-09-18T01:11:05;22.05;;;10.63;;
72156;SDS011;60035;52.122;5.406;2023-09-18T01:13:51;18.92;;;9.77;;
72156;SDS011;60035;52.122;5.406;2023-09-18T01:16:31;19.33;;;10.05;;
72156;SDS011;60035;52.122;5.406;2023-09-18T01:19:03;16.08;;;10.00;;
72156;SDS011;60035;52.122;5.406;2023-09-18T01:21:29;18.30;;;10.15;;
72156;SDS011;60035;52.122;5.406;2023-09-18T01:24:08;16.77;;;9.93;;
72156;SDS011;60035;52.122;5.406;2023-09-18T01:26:34;19.05;;;9.93;;
72156;SDS011;60035;52.122;5.406;2023-09-18T01:29:01;20.17;;;10.48;;
72156;SDS011;60035;52.122;5.406;2023-09-18T01:31:29;19.08;;;9.90;;
72156;SDS011;60035;52.122;5.406;2023-09-18T01:34:12;18.27;;;9.77;;
72156;SDS011;60035;52.122;5.406;2023-09-18T01:39:05;17.85;;;10.05;;
72156;SDS011;60035;52.122;5.406;2023-09-18T01:41:35;18.25;;;10.27;;
72156;SDS011;60035;52.122;5.406;2023-09-18T01:44:02;20.98;;;10.90;;
72156;SDS011;60035;52.122;5.406;2023-09-18T01:46:34;19.30;;;11.30;;
72156;SDS011;60035;52.122;5.406;2023-09-18T01:49:03;20.52;;;11.85;;
72156;SDS011;60035;52.122;5.406;2023-09-18T01:51:30;18.30;;;10.73;;
72156;SDS011;60035;52.122;5.406;2023-09-18T01:53:59;19.60;;;11.30;;
72156;SDS011;60035;52.122;5.406;2023-09-18T01:56:26;22.23;;;10.55;;
72156;SDS011;60035;52.122;5.406;2023-09-18T01:58:53;18.70;;;10.05;;
72156;SDS011;60035;52.122;5.406;2023-09-18T02:01:20;17.67;;;9.15;;
72156;SDS011;60035;52.122;5.406;2023-09-18T02:07:26;15.80;;;9.05;;
72156;SDS011;60035;52.122;5.406;2023-09-18T02:09:52;19.58;;;10.15;;
72156;SDS011;60035;52.122;5.406;2023-09-18T02:12:24;18.45;;;9.25;;
72156;SDS011;60035;52.122;5.406;2023-09-18T02:14:51;24.83;;;10.25;;
72156;SDS011;60035;52.122;5.406;2023-09-18T02:17:17;19.48;;;11.60;;
72156;SDS011;60035;52.122;5.406;2023-09-18T02:19:47;19.13;;;11.27;;
72156;SDS011;60035;52.122;5.406;2023-09-18T02:22:18;19.98;;;11.90;;
72156;SDS011;60035;52.122;5.406;2023-09-18T02:24:44;18.20;;;11.05;;
72156;SDS011;60035;52.122;5.406;2023-09-18T02:27:11;18.48;;;9.50;;
72156;SDS011;60035;52.122;5.406;2023-09-18T02:29:38;18.48;;;11.00;;
72156;SDS011;60035;52.122;5.406;2023-09-18T02:32:05;19.70;;;10.10;;
72156;SDS011;60035;52.122;5.406;2023-09-18T02:34:31;18.48;;;10.65;;
72156;SDS011;60035;52.122;5.406;2023-09-18T02:36:58;20.20;;;11.32;;
72156;SDS011;60035;52.122;5.406;2023-09-18T02:39:24;20.10;;;10.82;;
72156;SDS011;60035;52.122;5.406;2023-09-18T02:41:53;22.95;;;11.77;;
72156;SDS011;60035;52.122;5.406;2023-09-18T02:44:20;16.10;;;10.98;;
72156;SDS011;60035;52.122;5.406;2023-09-18T02:46:47;20.77;;;11.88;;
72156;SDS011;60035;52.122;5.406;2023-09-18T02:49:13;19.20;;;11.20;;
72156;SDS011;60035;52.122;5.406;2023-09-18T02:51:52;20.33;;;11.55;;
72156;SDS011;60035;52.122;5.406;2023-09-18T02:54:18;21.35;;;11.80;;
72156;SDS011;60035;52.122;5.406;2023-09-18T02:56:45;21.70;;;12.35;;
72156;SDS011;60035;52.122;5.406;2023-09-18T02:59:11;21.67;;;12.80;;
72156;SDS011;60035;52.122;5.406;2023-09-18T03:01:38;20.38;;;12.07;;
72156;SDS011;60035;52.122;5.406;2023-09-18T03:04:05;21.60;;;13.10;;
72156;SDS011;60035;52.122;5.406;2023-09-18T03:06:32;25.70;;;13.23;;
72156;SDS011;60035;52.122;5.406;2023-09-18T03:08:59;22.77;;;14.70;;
72156;SDS011;60035;52.122;5.406;2023-09-18T03:11:25;22.23;;;13.75;;
72156;SDS011;60035;52.122;5.406;2023-09-18T03:13:56;24.98;;;14.00;;
72156;SDS011;60035;52.122;5.406;2023-09-18T03:16:22;23.25;;;13.85;;
72156;SDS011;60035;52.122;5.406;2023-09-18T03:18:49;23.05;;;12.65;;
72156;SDS011;60035;52.122;5.406;2023-09-18T03:21:16;20.40;;;12.38;;
72156;SDS011;60035;52.122;5.406;2023-09-18T03:23:57;21.13;;;12.93;;
72156;SDS011;60035;52.122;5.406;2023-09-18T03:26:24;21.42;;;13.10;;
72156;SDS011;60035;52.122;5.406;2023-09-18T03:28:51;22.50;;;12.65;;
72156;SDS011;60035;52.122;5.406;2023-09-18T03:31:18;20.63;;;12.93;;
72156;SDS011;60035;52.122;5.406;2023-09-18T03:33:52;24.05;;;12.55;;
72156;SDS011;60035;52.122;5.406;2023-09-18T03:36:20;21.92;;;12.35;;
72156;SDS011;60035;52.122;5.406;2023-09-18T03:38:48;21.92;;;13.25;;
72156;SDS011;60035;52.122;5.406;2023-09-18T03:41:15;24.73;;;12.00;;
72156;SDS011;60035;52.122;5.406;2023-09-18T03:43:54;23.02;;;12.23;;
72156;SDS011;60035;52.122;5.406;2023-09-18T03:46:21;23.13;;;12.63;;
72156;SDS011;60035;52.122;5.406;2023-09-18T03:48:47;20.58;;;12.25;;
72156;SDS011;60035;52.122;5.406;2023-09-18T03:51:14;25.88;;;12.65;;
72156;SDS011;60035;52.122;5.406;2023-09-18T03:53:49;23.42;;;13.10;;
72156;SDS011;60035;52.122;5.406;2023-09-18T03:56:15;20.77;;;12.88;;
72156;SDS011;60035;52.122;5.406;2023-09-18T03:58:42;24.23;;;13.40;;
72156;SDS011;60035;52.122;5.406;2023-09-18T04:01:11;23.23;;;13.18;;
72156;SDS011;60035;52.122;5.406;2023-09-18T04:03:39;23.73;;;14.45;;
72156;SDS011;60035;52.122;5.406;2023-09-18T04:06:06;23.38;;;13.85;;
72156;SDS011;60035;52.122;5.406;2023-09-18T04:08:33;25.52;;;15.45;;
72156;SDS011;60035;52.122;5.406;2023-09-18T04:10:59;26.80;;;15.23;;
72156;SDS011;60035;52.122;5.406;2023-09-18T04:13:27;24.77;;;14.85;;
72156;SDS011;60035;52.122;5.406;2023-09-18T04:15:54;31.23;;;15.85;;
72156;SDS011;60035;52.122;5.406;2023-09-18T04:18:23;27.95;;;15.52;;
72156;SDS011;60035;52.122;5.406;2023-09-18T04:20:50;24.85;;;14.63;;
72156;SDS011;60035;52.122;5.406;2023-09-18T04:23:28;26.33;;;15.00;;
72156;SDS011;60035;52.122;5.406;2023-09-18T04:25:55;24.77;;;13.85;;
72156;SDS011;60035;52.122;5.406;2023-09-18T04:28:24;26.27;;;14.13;;
72156;SDS011;60035;52.122;5.406;2023-09-18T04:30:51;23.10;;;13.10;;
72156;SDS011;60035;52.122;5.406;2023-09-18T04:33:32;26.73;;;13.35;;
72156;SDS011;60035;52.122;5.406;2023-09-18T04:35:59;22.52;;;12.93;;
72156;SDS011;60035;52.122;5.406;2023-09-18T04:38:25;21.90;;;12.57;;
72156;SDS011;60035;52.122;5.406;2023-09-18T04:40:59;23.30;;;13.48;;
72156;SDS011;60035;52.122;5.406;2023-09-18T04:43:27;24.13;;;12.85;;
72156;SDS011;60035;52.122;5.406;2023-09-18T04:45:56;23.70;;;13.20;;
72156;SDS011;60035;52.122;5.406;2023-09-18T04:48:22;22.35;;;12.85;;
72156;SDS011;60035;52.122;5.406;2023-09-18T04:50:49;22.02;;;12.55;;
72156;SDS011;60035;52.122;5.406;2023-09-18T04:53:18;20.75;;;12.48;;
72156;SDS011;60035;52.122;5.406;2023-09-18T04:55:45;22.90;;;11.68;;
72156;SDS011;60035;52.122;5.406;2023-09-18T04:58:16;24.83;;;13.68;;
72156;SDS011;60035;52.122;5.406;2023-09-18T05:00:43;32.40;;;14.65;;
72156;SDS011;60035;52.122;5.406;2023-09-18T05:03:16;34.17;;;14.57;;
72156;SDS011;60035;52.122;5.406;2023-09-18T05:05:43;13.43;;;5.40;;
72156;SDS011;60035;52.122;5.406;2023-09-18T05:08:10;20.98;;;8.32;;
72156;SDS011;60035;52.122;5.406;2023-09-18T05:10:37;15.65;;;6.75;;
72156;SDS011;60035;52.122;5.406;2023-09-18T05:13:05;14.55;;;7.20;;
72156;SDS011;60035;52.122;5.406;2023-09-18T05:15:32;12.15;;;5.70;;
72156;SDS011;60035;52.122;5.406;2023-09-18T05:17:59;9.73;;;4.50;;
72156;SDS011;60035;52.122;5.406;2023-09-18T05:20:28;10.40;;;4.65;;
72156;SDS011;60035;52.122;5.406;2023-09-18T05:23:02;13.32;;;5.60;;
72156;SDS011;60035;52.122;5.406;2023-09-18T05:25:29;10.77;;;4.72;;
72156;SDS011;60035;52.122;5.406;2023-09-18T05:27:59;10.75;;;4.45;;
72156;SDS011;60035;52.122;5.406;2023-09-18T05:30:27;10.80;;;4.75;;
72156;SDS011;60035;52.122;5.406;2023-09-18T05:33:01;9.65;;;4.57;;
72156;SDS011;60035;52.122;5.406;2023-09-18T05:35:32;9.57;;;4.40;;
72156;SDS011;60035;52.122;5.406;2023-09-18T05:37:59;10.52;;;4.80;;
72156;SDS011;60035;52.122;5.406;2023-09-18T05:40:26;11.63;;;5.35;;
72156;SDS011;60035;52.122;5.406;2023-09-18T05:45:47;10.30;;;5.43;;
72156;SDS011;60035;52.122;5.406;2023-09-18T05:48:15;10.50;;;5.07;;
72156;SDS011;60035;52.122;5.406;2023-09-18T05:50:42;11.93;;;5.15;;
72156;SDS011;60035;52.122;5.406;2023-09-18T05:53:22;11.43;;;5.43;;
72156;SDS011;60035;52.122;5.406;2023-09-18T05:55:49;11.65;;;5.80;;
72156;SDS011;60035;52.122;5.406;2023-09-18T05:58:16;12.43;;;5.80;;
72156;SDS011;60035;52.122;5.406;2023-09-18T06:00:43;13.80;;;6.07;;
72156;SDS011;60035;52.122;5.406;2023-09-18T06:03:16;11.07;;;5.47;;
72156;SDS011;60035;52.122;5.406;2023-09-18T06:05:45;11.75;;;6.05;;
72156;SDS011;60035;52.122;5.406;2023-09-18T06:08:13;12.43;;;5.55;;
72156;SDS011;60035;52.122;5.406;2023-09-18T06:10:41;12.10;;;5.80;;
72156;SDS011;60035;52.122;5.406;2023-09-18T06:15:55;15.20;;;6.70;;
72156;SDS011;60035;52.122;5.406;2023-09-18T06:18:22;18.10;;;7.28;;
72156;SDS011;60035;52.122;5.406;2023-09-18T06:20:49;13.50;;;6.88;;
72156;SDS011;60035;52.122;5.406;2023-09-18T06:26:07;16.38;;;7.68;;
72156;SDS011;60035;52.122;5.406;2023-09-18T06:28:34;15.13;;;7.63;;
72156;SDS011;60035;52.122;5.406;2023-09-18T06:31:01;16.80;;;7.93;;
72156;SDS011;60035;52.122;5.406;2023-09-18T06:33:29;19.92;;;7.53;;
72156;SDS011;60035;52.122;5.406;2023-09-18T06:35:56;16.08;;;7.60;;
72156;SDS011;60035;52.122;5.406;2023-09-18T06:38:23;16.27;;;8.60;;
72156;SDS011;60035;52.122;5.406;2023-09-18T06:40:49;15.75;;;7.47;;
72156;SDS011;60035;52.122;5.406;2023-09-18T06:43:18;18.73;;;7.55;;
72156;SDS011;60035;52.122;5.406;2023-09-18T06:45:45;14.85;;;7.55;;
72156;SDS011;60035;52.122;5.406;2023-09-18T06:48:11;15.23;;;7.88;;
72156;SDS011;60035;52.122;5.406;2023-09-18T06:50:40;13.82;;;7.65;;
72156;SDS011;60035;52.122;5.406;2023-09-18T06:53:16;16.40;;;7.97;;
72156;SDS011;60035;52.122;5.406;2023-09-18T06:55:42;15.98;;;8.15;;
72156;SDS011;60035;52.122;5.406;2023-09-18T06:58:09;15.77;;;8.77;;
72156;SDS011;60035;52.122;5.406;2023-09-18T07:00:36;16.60;;;8.30;;
72156;SDS011;60035;52.122;5.406;2023-09-18T07:03:05;17.23;;;8.73;;
72156;SDS011;60035;52.122;5.406;2023-09-18T07:05:32;16.95;;;8.85;;
72156;SDS011;60035;52.122;5.406;2023-09-18T07:07:59;13.82;;;8.35;;
72156;SDS011;60035;52.122;5.406;2023-09-18T07:10:25;19.25;;;8.90;;
72156;SDS011;60035;52.122;5.406;2023-09-18T07:13:02;19.90;;;9.63;;
72156;SDS011;60035;52.122;5.406;2023-09-18T07:15:28;17.52;;;8.90;;
72156;SDS011;60035;52.122;5.406;2023-09-18T07:17:55;19.98;;;9.98;;
72156;SDS011;60035;52.122;5.406;2023-09-18T07:20:22;17.55;;;9.55;;
72156;SDS011;60035;52.122;5.406;2023-09-18T07:22:50;19.00;;;9.18;;
72156;SDS011;60035;52.122;5.406;2023-09-18T07:25:17;18.33;;;10.15;;
72156;SDS011;60035;52.122;5.406;2023-09-18T07:27:44;17.60;;;9.98;;
72156;SDS011;60035;52.122;5.406;2023-09-18T07:30:11;17.60;;;9.23;;
72156;SDS011;60035;52.122;5.406;2023-09-18T07:32:41;17.60;;;9.80;;
72156;SDS011;60035;52.122;5.406;2023-09-18T07:37:36;14.05;;;8.57;;
72156;SDS011;60035;52.122;5.406;2023-09-18T07:40:06;17.23;;;9.93;;
72156;SDS011;60035;52.122;5.406;2023-09-18T07:42:34;15.98;;;8.93;;
72156;SDS011;60035;52.122;5.406;2023-09-18T07:45:01;16.02;;;9.02;;
72156;SDS011;60035;52.122;5.406;2023-09-18T07:47:28;17.52;;;8.55;;
72156;SDS011;60035;52.122;5.406;2023-09-18T07:50:07;17.25;;;8.48;;
72156;SDS011;60035;52.122;5.406;2023-09-18T07:52:37;13.20;;;7.78;;
72156;SDS011;60035;52.122;5.406;2023-09-18T07:55:04;14.85;;;8.43;;
72156;SDS011;60035;52.122;5.406;2023-09-18T07:57:31;13.60;;;8.27;;
72156;SDS011;60035;52.122;5.406;2023-09-18T08:00:00;13.50;;;8.07;;
72156;SDS011;60035;52.122;5.406;2023-09-18T08:02:40;14.75;;;8.18;;
72156;SDS011;60035;52.122;5.406;2023-09-18T08:05:07;12.95;;;7.32;;
72156;SDS011;60035;52.122;5.406;2023-09-18T08:07:35;12.80;;;7.20;;
72156;SDS011;60035;52.122;5.406;2023-09-18T08:10:03;12.07;;;6.70;;
72156;SDS011;60035;52.122;5.406;2023-09-18T08:12:35;11.15;;;6.13;;
72156;SDS011;60035;52.122;5.406;2023-09-18T08:15:02;12.35;;;6.32;;
72156;SDS011;60035;52.122;5.406;2023-09-18T08:17:29;12.55;;;5.20;;
72156;SDS011;60035;52.122;5.406;2023-09-18T08:19:56;13.25;;;6.57;;
72156;SDS011;60035;52.122;5.406;2023-09-18T08:22:24;11.70;;;6.65;;
72156;SDS011;60035;52.122;5.406;2023-09-18T08:24:51;12.57;;;5.72;;
72156;SDS011;60035;52.122;5.406;2023-09-18T08:27:19;9.95;;;5.82;;
72156;SDS011;60035;52.122;5.406;2023-09-18T08:29:46;11.52;;;5.40;;
72156;SDS011;60035;52.122;5.406;2023-09-18T08:32:13;10.18;;;5.32;;
72156;SDS011;60035;52.122;5.406;2023-09-18T08:34:40;10.65;;;5.20;;
72156;SDS011;60035;52.122;5.406;2023-09-18T08:37:06;10.30;;;5.28;;
72156;SDS011;60035;52.122;5.406;2023-09-18T08:39:35;9.10;;;4.60;;
72156;SDS011;60035;52.122;5.406;2023-09-18T08:42:04;10.55;;;5.38;;
72156;SDS011;60035;52.122;5.406;2023-09-18T08:44:33;10.23;;;4.82;;
72156;SDS011;60035;52.122;5.406;2023-09-18T08:47:05;10.23;;;5.03;;
72156;SDS011;60035;52.122;5.406;2023-09-18T08:49:34;12.27;;;5.32;;
72156;SDS011;60035;52.122;5.406;2023-09-18T08:52:03;9.88;;;5.20;;
72156;SDS011;60035;52.122;5.406;2023-09-18T08:54:30;12.15;;;5.38;;
72156;SDS011;60035;52.122;5.406;2023-09-18T08:56:57;12.18;;;4.90;;
72156;SDS011;60035;52.122;5.406;2023-09-18T08:59:24;9.88;;;4.60;;
72156;SDS011;60035;52.122;5.406;2023-09-18T09:01:54;11.10;;;4.60;;
72156;SDS011;60035;52.122;5.406;2023-09-18T09:04:21;10.50;;;5.07;;
72156;SDS011;60035;52.122;5.406;2023-09-18T09:06:48;8.65;;;4.00;;
72156;SDS011;60035;52.122;5.406;2023-09-18T09:09:15;12.15;;;5.18;;
72156;SDS011;60035;52.122;5.406;2023-09-18T09:11:48;10.15;;;4.50;;
72156;SDS011;60035;52.122;5.406;2023-09-18T09:14:16;9.63;;;4.10;;
72156;SDS011;60035;52.122;5.406;2023-09-18T09:16:49;9.65;;;4.57;;
72156;SDS011;60035;52.122;5.406;2023-09-18T09:19:17;8.43;;;4.47;;
72156;SDS011;60035;52.122;5.406;2023-09-18T09:21:47;9.70;;;4.45;;
72156;SDS011;60035;52.122;5.406;2023-09-18T09:24:15;8.68;;;4.57;;
72156;SDS011;60035;52.122;5.406;2023-09-18T09:26:41;8.35;;;4.13;;
72156;SDS011;60035;52.122;5.406;2023-09-18T09:29:18;10.27;;;4.60;;
72156;SDS011;60035;52.122;5.406;2023-09-18T09:31:48;8.10;;;4.10;;
72156;SDS011;60035;52.122;5.406;2023-09-18T09:34:26;7.10;;;3.58;;
72156;SDS011;60035;52.122;5.406;2023-09-18T09:36:56;9.30;;;3.95;;
72156;SDS011;60035;52.122;5.406;2023-09-18T09:39:23;8.38;;;3.40;;
72156;SDS011;60035;52.122;5.406;2023-09-18T09:41:53;9.07;;;3.50;;
72156;SDS011;60035;52.122;5.406;2023-09-18T09:44:19;9.52;;;3.70;;
72156;SDS011;60035;52.122;5.406;2023-09-18T09:46:49;7.38;;;4.15;;
72156;SDS011;60035;52.122;5.406;2023-09-18T09:49:17;9.30;;;4.63;;
72156;SDS011;60035;52.122;5.406;2023-09-18T09:51:47;12.50;;;5.22;;
72156;SDS011;60035;52.122;5.406;2023-09-18T09:54:13;9.95;;;5.35;;
72156;SDS011;60035;52.122;5.406;2023-09-18T09:59:10;10.23;;;5.65;;
72156;SDS011;60035;52.122;5.406;2023-09-18T10:01:38;9.45;;;5.70;;
72156;SDS011;60035;52.122;5.406;2023-09-18T10:04:13;8.95;;;5.70;;
72156;SDS011;60035;52.122;5.406;2023-09-18T10:06:45;10.68;;;6.65;;
72156;SDS011;60035;52.122;5.406;2023-09-18T10:09:17;8.55;;;5.90;;
72156;SDS011;60035;52.122;5.406;2023-09-18T10:11:51;12.27;;;6.20;;
72156;SDS011;60035;52.122;5.406;2023-09-18T10:14:19;12.43;;;6.55;;
72156;SDS011;60035;52.122;5.406;2023-09-18T10:16:53;8.70;;;6.20;;
72156;SDS011;60035;52.122;5.406;2023-09-18T10:19:27;9.18;;;5.65;;
72156;SDS011;60035;52.122;5.406;2023-09-18T10:25:11;8.50;;;5.50;;
72156;SDS011;60035;52.122;5.406;2023-09-18T10:27:47;9.32;;;5.43;;
72156;SDS011;60035;52.122;5.406;2023-09-18T10:30:24;9.70;;;5.70;;
72156;SDS011;60035;52.122;5.406;2023-09-18T10:32:55;9.48;;;6.05;;
72156;SDS011;60035;52.122;5.406;2023-09-18T10:35:22;9.98;;;6.95;;
72156;SDS011;60035;52.122;5.406;2023-09-18T10:37:50;12.60;;;6.78;;
72156;SDS011;60035;52.122;5.406;2023-09-18T10:40:20;11.32;;;6.88;;
72156;SDS011;60035;52.122;5.406;2023-09-18T10:42:49;11.02;;;7.13;;
72156;SDS011;60035;52.122;5.406;2023-09-18T10:45:17;11.18;;;7.90;;
72156;SDS011;60035;52.122;5.406;2023-09-18T10:47:44;12.00;;;7.20;;
72156;SDS011;60035;52.122;5.406;2023-09-18T10:50:13;12.55;;;7.38;;
72156;SDS011;60035;52.122;5.406;2023-09-18T10:52:57;10.85;;;7.65;;
72156;SDS011;60035;52.122;5.406;2023-09-18T10:55:24;14.77;;;7.72;;
72156;SDS011;60035;52.122;5.406;2023-09-18T10:57:53;12.10;;;7.80;;
72156;SDS011;60035;52.122;5.406;2023-09-18T11:00:21;12.98;;;8.32;;
72156;SDS011;60035;52.122;5.406;2023-09-18T11:02:52;9.90;;;7.30;;
72156;SDS011;60035;52.122;5.406;2023-09-18T11:05:34;11.23;;;7.35;;
72156;SDS011;60035;52.122;5.406;2023-09-18T11:10:55;12.07;;;7.10;;
72156;SDS011;60035;52.122;5.406;2023-09-18T11:13:33;10.40;;;6.82;;
72156;SDS011;60035;52.122;5.406;2023-09-18T11:21:27;10.57;;;6.10;;
72156;SDS011;60035;52.122;5.406;2023-09-18T11:24:02;10.15;;;5.90;;
72156;SDS011;60035;52.122;5.406;2023-09-18T11:26:34;9.85;;;5.78;;
72156;SDS011;60035;52.122;5.406;2023-09-18T11:29:05;10.18;;;5.68;;
72156;SDS011;60035;52.122;5.406;2023-09-18T11:34:22;10.75;;;5.20;;
72156;SDS011;60035;52.122;5.406;2023-09-18T11:36:52;8.60;;;5.05;;
72156;SDS011;60035;52.122;5.406;2023-09-18T11:39:37;9.57;;;5.00;;
72156;SDS011;60035;52.122;5.406;2023-09-18T11:44:36;8.25;;;5.40;;
72156;SDS011;60035;52.122;5.406;2023-09-18T11:47:09;11.55;;;4.90;;
72156;SDS011;60035;52.122;5.406;2023-09-18T11:49:46;10.93;;;5.45;;
72156;SDS011;60035;52.122;5.406;2023-09-18T11:52:27;10.40;;;5.88;;
72156;SDS011;60035;52.122;5.406;2023-09-18T11:54:55;14.38;;;6.90;;
72156;SDS011;60035;52.122;5.406;2023-09-18T11:57:24;10.65;;;6.65;;
72156;SDS011;60035;52.122;5.406;2023-09-18T11:59:51;12.27;;;6.53;;
72156;SDS011;60035;52.122;5.406;2023-09-18T12:05:10;12.02;;;6.70;;
72156;SDS011;60035;52.122;5.406;2023-09-18T12:07:40;9.68;;;6.10;;
72156;SDS011;60035;52.122;5.406;2023-09-18T12:10:12;11.35;;;5.70;;
72156;SDS011;60035;52.122;5.406;2023-09-18T12:12:41;14.38;;;5.60;;
72156;SDS011;60035;52.122;5.406;2023-09-18T12:15:12;11.70;;;5.22;;
72156;SDS011;60035;52.122;5.406;2023-09-18T12:17:41;9.57;;;5.10;;
72156;SDS011;60035;52.122;5.406;2023-09-18T12:20:14;10.13;;;5.20;;
72156;SDS011;60035;52.122;5.406;2023-09-18T12:22:48;9.50;;;4.55;;
72156;SDS011;60035;52.122;5.406;2023-09-18T12:25:17;12.52;;;4.93;;
72156;SDS011;60035;52.122;5.406;2023-09-18T12:27:51;10.15;;;5.32;;
72156;SDS011;60035;52.122;5.406;2023-09-18T12:30:19;8.32;;;4.63;;
72156;SDS011;60035;52.122;5.406;2023-09-18T12:32:48;8.13;;;4.78;;
72156;SDS011;60035;52.122;5.406;2023-09-18T12:35:16;7.90;;;4.28;;
72156;SDS011;60035;52.122;5.406;2023-09-18T12:37:45;9.10;;;4.63;;
72156;SDS011;60035;52.122;5.406;2023-09-18T12:42:53;9.13;;;4.45;;
72156;SDS011;60035;52.122;5.406;2023-09-18T12:45:21;8.60;;;4.75;;
72156;SDS011;60035;52.122;5.406;2023-09-18T12:47:50;8.15;;;4.32;;
72156;SDS011;60035;52.122;5.406;2023-09-18T12:50:18;8.70;;;4.30;;
72156;SDS011;60035;52.122;5.406;2023-09-18T12:52:45;10.18;;;4.00;;
72156;SDS011;60035;52.122;5.406;2023-09-18T12:55:21;7.17;;;4.13;;
72156;SDS011;60035;52.122;5.406;2023-09-18T12:57:52;9.27;;;4.25;;
72156;SDS011;60035;52.122;5.406;2023-09-18T13:00:20;8.30;;;3.97;;
72156;SDS011;60035;52.122;5.406;2023-09-18T13:02:50;8.35;;;4.32;;
72156;SDS011;60035;52.122;5.406;2023-09-18T13:05:22;10.88;;;4.53;;
72156;SDS011;60035;52.122;5.406;2023-09-18T13:07:53;9.30;;;4.63;;
72156;SDS011;60035;52.122;5.406;2023-09-18T13:10:20;13.30;;;4.50;;
72156;SDS011;60035;52.122;5.406;2023-09-18T13:12:52;9.90;;;4.35;;
72156;SDS011;60035;52.122;5.406;2023-09-18T13:15:31;10.05;;;4.28;;
72156;SDS011;60035;52.122;5.406;2023-09-18T13:18:08;9.10;;;3.78;;
72156;SDS011;60035;52.122;5.406;2023-09-18T13:20:36;7.30;;;3.80;;
72156;SDS011;60035;52.122;5.406;2023-09-18T13:23:03;7.90;;;4.10;;
72156;SDS011;60035;52.122;5.406;2023-09-18T13:25:36;8.55;;;4.00;;
72156;SDS011;60035;52.122;5.406;2023-09-18T13:28:05;8.30;;;3.40;;
72156;SDS011;60035;52.122;5.406;2023-09-18T13:30:33;8.20;;;3.90;;
72156;SDS011;60035;52.122;5.406;2023-09-18T13:33:04;9.18;;;3.78;;
72156;SDS011;60035;52.122;5.406;2023-09-18T13:35:33;6.43;;;3.17;;
72156;SDS011;60035;52.122;5.406;2023-09-18T13:38:01;7.15;;;3.75;;
72156;SDS011;60035;52.122;5.406;2023-09-18T13:40:31;8.50;;;3.47;;
72156;SDS011;60035;52.122;5.406;2023-09-18T13:43:05;7.68;;;3.35;;
72156;SDS011;60035;52.122;5.406;2023-09-18T13:45:32;9.00;;;3.22;;
72156;SDS011;60035;52.122;5.406;2023-09-18T13:48:01;8.23;;;3.20;;
72156;SDS011;60035;52.122;5.406;2023-09-18T13:50:30;6.95;;;2.63;;
72156;SDS011;60035;52.122;5.406;2023-09-18T13:52:57;6.22;;;2.83;;
72156;SDS011;60035;52.122;5.406;2023-09-18T13:55:26;5.80;;;2.58;;
72156;SDS011;60035;52.122;5.406;2023-09-18T13:57:53;10.88;;;2.60;;
72156;SDS011;60035;52.122;5.406;2023-09-18T14:00:19;6.55;;;2.38;;
72156;SDS011;60035;52.122;5.406;2023-09-18T14:02:46;7.05;;;2.50;;
72156;SDS011;60035;52.122;5.406;2023-09-18T14:05:13;8.43;;;2.97;;
72156;SDS011;60035;52.122;5.406;2023-09-18T14:07:43;9.02;;;2.40;;
72156;SDS011;60035;52.122;5.406;2023-09-18T14:10:10;7.03;;;2.33;;
72156;SDS011;60035;52.122;5.406;2023-09-18T14:12:37;5.38;;;1.83;;
72156;SDS011;60035;52.122;5.406;2023-09-18T14:15:05;7.05;;;2.33;;
72156;SDS011;60035;52.122;5.406;2023-09-18T14:17:33;5.10;;;2.00;;
72156;SDS011;60035;52.122;5.406;2023-09-18T14:20:01;2.92;;;1.70;;
72156;SDS011;60035;52.122;5.406;2023-09-18T14:22:33;5.25;;;2.38;;
72156;SDS011;60035;52.122;5.406;2023-09-18T14:25:02;4.10;;;1.80;;
72156;SDS011;60035;52.122;5.406;2023-09-18T14:27:32;5.82;;;1.95;;
72156;SDS011;60035;52.122;5.406;2023-09-18T14:29:59;5.20;;;1.95;;
72156;SDS011;60035;52.122;5.406;2023-09-18T14:32:28;4.63;;;2.20;;
72156;SDS011;60035;52.122;5.406;2023-09-18T14:34:54;6.47;;;2.28;;
72156;SDS011;60035;52.122;5.406;2023-09-18T14:37:21;4.10;;;1.80;;
72156;SDS011;60035;52.122;5.406;2023-09-18T14:39:47;3.95;;;2.00;;
72156;SDS011;60035;52.122;5.406;2023-09-18T14:42:14;5.40;;;2.15;;
72156;SDS011;60035;52.122;5.406;2023-09-18T14:44:41;5.85;;;2.30;;
72156;SDS011;60035;52.122;5.406;2023-09-18T14:47:11;3.92;;;1.92;;
72156;SDS011;60035;52.122;5.406;2023-09-18T14:49:38;4.05;;;2.33;;
72156;SDS011;60035;52.122;5.406;2023-09-18T14:52:05;5.55;;;2.25;;
72156;SDS011;60035;52.122;5.406;2023-09-18T14:54:32;4.65;;;2.30;;
72156;SDS011;60035;52.122;5.406;2023-09-18T14:56:59;5.32;;;2.03;;
72156;SDS011;60035;52.122;5.406;2023-09-18T14:59:27;5.57;;;2.20;;
72156;SDS011;60035;52.122;5.406;2023-09-18T15:02:07;6.93;;;2.22;;
72156;SDS011;60035;52.122;5.406;2023-09-18T15:04:34;6.45;;;2.40;;
72156;SDS011;60035;52.122;5.406;2023-09-18T15:07:00;5.45;;;2.30;;
72156;SDS011;60035;52.122;5.406;2023-09-18T15:09:27;8.23;;;2.88;;
72156;SDS011;60035;52.122;5.406;2023-09-18T15:11:54;8.52;;;3.15;;
72156;SDS011;60035;52.122;5.406;2023-09-18T15:14:20;8.80;;;3.20;;
72156;SDS011;60035;52.122;5.406;2023-09-18T15:16:47;7.63;;;2.88;;
72156;SDS011;60035;52.122;5.406;2023-09-18T15:19:15;8.25;;;2.22;;
72156;SDS011;60035;52.122;5.406;2023-09-18T15:21:46;4.25;;;1.58;;
72156;SDS011;60035;52.122;5.406;2023-09-18T15:24:12;3.70;;;1.48;;
72156;SDS011;60035;52.122;5.406;2023-09-18T15:26:39;4.93;;;1.23;;
72156;SDS011;60035;52.122;5.406;2023-09-18T15:29:06;3.13;;;1.40;;